»·PEaware :: UAL1511 KSFO-KBUR

UAL1511 :: KSFO-KBUR

FLIGHT INFORMATION

Flight Status: Arrived
Operator:
United Airlines
More flights by this operator :: More flights under this callsign
Pilot: Reed C. (25432)
Aircraft: BOEING 737-800
(B738)
More flights by this aircraft type
Origin: KSFO San Francisco Intl
United States
Destination: KBUR Bob Hope-Burbank
United States
More flights between these airports :: More routes between these airports
Route: SSTIK4 CISKO RDHOT ROKKR2
File this flight plan on PilotEdge
Remarks:
Altitude:
(Current/Filed)
31,000ft
Speed:
(Current/Filed)
490kts
Departed: 11-Jan-21 04:14 PM
Arrived: 11-Jan-21 05:03 PM
Distance/Time
Traveled:
283nm/0:49
Distance/Time
To Go:
Arrived

Flight Plot

Page will automatically refresh every two minutes.

Flight plan parsing failed; only flown route is shown


Map Options




Map Legend


Flown Route
Filed Route
Departure Airport
Arrival Airport
Navaid (VOR, NDB)
Fix

Horizontal Profiles

Position Reports

Time Latitude Longitude Heading Altitude Ground
Speed
11-Jan-21 15:47 37.619188 -122.383523 291 34ft 0kts
11-Jan-21 15:48 37.619188 -122.383523 291 34ft 0kts
11-Jan-21 15:49 37.619188 -122.383523 291 34ft 0kts
11-Jan-21 15:50 37.619188 -122.383523 291 33ft 0kts
11-Jan-21 15:51 37.619188 -122.383523 291 33ft 0kts
11-Jan-21 15:52 37.619188 -122.383523 291 33ft 0kts
11-Jan-21 15:53 37.619188 -122.383523 291 33ft 0kts
11-Jan-21 15:54 37.619188 -122.383523 291 33ft 0kts
11-Jan-21 15:55 37.619188 -122.383523 291 33ft 0kts
11-Jan-21 15:56 37.619188 -122.383523 291 33ft 0kts
11-Jan-21 15:57 37.619188 -122.383523 291 33ft 0kts
11-Jan-21 15:58 37.619188 -122.383523 291 33ft 0kts
11-Jan-21 15:59 37.619188 -122.383523 291 33ft 0kts
11-Jan-21 16:00 37.619188 -122.383523 291 33ft 0kts
11-Jan-21 16:01 37.619188 -122.383522 291 34ft 0kts
11-Jan-21 16:02 37.619188 -122.383522 291 34ft 0kts
11-Jan-21 16:03 37.619058 -122.383175 318 34ft 2kts
11-Jan-21 16:04 37.618614 -122.383127 28 34ft 0kts
11-Jan-21 16:05 37.618614 -122.383128 28 33ft 0kts
11-Jan-21 16:06 37.618703 -122.383067 28 33ft 0kts
11-Jan-21 16:07 37.618950 -122.382905 26 33ft 1kts
11-Jan-21 16:08 37.619231 -122.380982 117 34ft 9kts
11-Jan-21 16:09 37.616556 -122.379677 206 33ft 9kts
11-Jan-21 16:10 37.613961 -122.381397 209 34ft 18kts
11-Jan-21 16:11 37.609600 -122.384455 214 33ft 15kts
11-Jan-21 16:12 37.608465 -122.383860 117 33ft 0kts
11-Jan-21 16:13 37.613250 -122.379376 28 32ft 109kts
11-Jan-21 16:14 37.652427 -122.361202 2 2164ft 163kts
11-Jan-21 16:15 37.704423 -122.369286 330 4722ft 212kts
11-Jan-21 16:16 37.693049 -122.432228 207 7343ft 252kts
11-Jan-21 16:17 37.619873 -122.450201 195 9797ft 283kts
11-Jan-21 16:18 37.540123 -122.460204 177 10021ft 288kts
11-Jan-21 16:20 37.455680 -122.425111 150 11334ft 360kts
11-Jan-21 16:21 37.374306 -122.334779 138 12983ft 407kts
11-Jan-21 16:22 37.291156 -122.234540 138 15051ft 423kts
11-Jan-21 16:23 37.204904 -122.130887 138 16719ft 439kts
11-Jan-21 16:24 37.116540 -122.025094 137 18719ft 452kts
11-Jan-21 16:25 37.024346 -121.914847 136 20321ft 459kts
11-Jan-21 16:26 36.930978 -121.803559 136 21482ft 466kts
11-Jan-21 16:27 36.836599 -121.691567 134 23424ft 470kts
11-Jan-21 16:28 36.741992 -121.579741 134 24842ft 484kts
11-Jan-21 16:29 36.642438 -121.462478 134 25999ft 500kts
11-Jan-21 16:30 36.540366 -121.342793 134 27360ft 508kts
11-Jan-21 16:31 36.437641 -121.222596 135 28866ft 510kts
11-Jan-21 16:32 36.332267 -121.108317 139 30468ft 508kts
11-Jan-21 16:33 36.224243 -120.998276 139 31221ft 507kts
11-Jan-21 16:33 36.133813 -120.905954 139 31214ft 504kts
11-Jan-21 16:35 36.007309 -120.777115 139 31208ft 506kts
11-Jan-21 16:36 35.899675 -120.667823 141 31216ft 501kts
11-Jan-21 16:37 35.792929 -120.559756 140 31211ft 502kts
11-Jan-21 16:37 35.702896 -120.469041 141 31210ft 500kts
11-Jan-21 16:39 35.577628 -120.344102 141 31210ft 496kts
11-Jan-21 16:39 35.490134 -120.252721 141 31201ft 497kts
11-Jan-21 16:41 35.369027 -120.126373 141 31218ft 475kts
11-Jan-21 16:41 35.284006 -120.038135 141 31218ft 484kts
11-Jan-21 16:42 35.182643 -119.933088 142 30111ft 469kts
11-Jan-21 16:43 35.085725 -119.833035 142 27545ft 449kts
11-Jan-21 16:44 34.991673 -119.736939 141 25026ft 433kts
11-Jan-21 16:45 34.900501 -119.643577 139 22554ft 420kts
11-Jan-21 16:46 34.824661 -119.542380 129 20769ft 397kts
11-Jan-21 16:47 34.755970 -119.440263 128 18690ft 381kts
11-Jan-21 16:48 34.691011 -119.341194 129 16449ft 375kts
11-Jan-21 16:49 34.630815 -119.243349 121 14739ft 355kts
11-Jan-21 16:50 34.580360 -119.140926 120 12740ft 352kts
11-Jan-21 16:51 34.523978 -119.051509 141 11818ft 320kts
11-Jan-21 16:52 34.453540 -118.985916 143 10249ft 319kts
11-Jan-21 16:53 34.385370 -118.919439 141 8758ft 307kts
11-Jan-21 16:54 34.346366 -118.835767 101 7791ft 291kts
11-Jan-21 16:55 34.327398 -118.741061 101 6211ft 283kts
11-Jan-21 16:56 34.309442 -118.651002 101 5009ft 259kts
11-Jan-21 16:57 34.292151 -118.573870 101 4747ft 228kts
11-Jan-21 16:58 34.276543 -118.502814 93 3731ft 200kts
11-Jan-21 16:59 34.271062 -118.442348 90 2885ft 166kts
11-Jan-21 17:00 34.258230 -118.386414 126 2263ft 161kts
11-Jan-21 17:01 34.219749 -118.362519 165 1031ft 160kts
11-Jan-21 17:02 34.196239 -118.356008 167 788ft 16kts
11-Jan-21 17:03 34.195065 -118.356413 258 788ft 2kts
11-Jan-21 17:04 34.196035 -118.356970 347 788ft 8kts
11-Jan-21 17:05 34.196575 -118.355513 155 788ft 4kts
11-Jan-21 17:06 34.196105 -118.354940 122 788ft 0kts
11-Jan-21 17:07 34.196105 -118.354940 122 788ft 0kts
11-Jan-21 17:08 34.196105 -118.354940 122 788ft 0kts

Navigation Log

Ident Type
Flight plan parsing failed, navigation log unavailable